createdAt,value
2022-12-02T00:01:53.105Z,31.73
2022-12-02T00:04:23.327Z,31.83
2022-12-02T00:06:52.400Z,34.90
2022-12-02T00:09:33.591Z,32.22
2022-12-02T00:12:33.247Z,32.50
2022-12-02T00:15:03.642Z,30.20
2022-12-02T00:17:31.274Z,31.55
2022-12-02T00:19:58.920Z,30.50
2022-12-02T00:22:26.265Z,30.80
2022-12-02T00:24:54.845Z,30.77
2022-12-02T00:27:22.169Z,32.38
2022-12-02T00:29:49.926Z,30.08
2022-12-02T00:32:17.518Z,29.87
2022-12-02T00:34:44.851Z,29.45
2022-12-02T00:37:12.176Z,30.27
2022-12-02T00:39:39.739Z,28.77
2022-12-02T00:42:07.054Z,26.65
2022-12-02T00:44:53.180Z,26.87
2022-12-02T00:47:21.012Z,24.73
2022-12-02T00:49:48.403Z,25.60
2022-12-02T00:52:15.838Z,25.52
2022-12-02T00:54:43.451Z,23.52
2022-12-02T00:57:10.908Z,24.35
2022-12-02T00:59:38.262Z,22.40
2022-12-02T01:02:05.895Z,22.35
2022-12-02T01:04:33.406Z,24.05
2022-12-02T01:07:00.711Z,22.55
2022-12-02T01:09:28.324Z,21.90
2022-12-02T01:11:55.644Z,22.37
2022-12-02T01:14:22.950Z,22.17
2022-12-02T01:16:50.649Z,23.25
2022-12-02T01:19:18.006Z,24.05
2022-12-02T01:21:45.332Z,21.42
2022-12-02T01:24:12.930Z,21.95
2022-12-02T01:26:40.233Z,22.05
2022-12-02T01:29:08.013Z,21.60
2022-12-02T01:31:35.864Z,22.30
2022-12-02T01:34:03.287Z,5.20
2022-12-02T01:36:30.629Z,22.13
2022-12-02T01:38:58.216Z,21.70
2022-12-02T01:41:25.875Z,22.27
2022-12-02T01:43:53.225Z,19.25
2022-12-02T01:46:20.932Z,19.12
2022-12-02T01:48:49.446Z,20.67
2022-12-02T01:51:17.021Z,17.55
2022-12-02T01:53:46.876Z,19.67
2022-12-02T01:56:14.407Z,18.05
2022-12-02T01:58:41.844Z,18.52
2022-12-02T02:01:32.354Z,16.40
2022-12-02T02:04:00.984Z,18.15
2022-12-02T02:06:35.319Z,17.25
2022-12-02T02:09:04.336Z,16.62
2022-12-02T02:11:31.761Z,16.17
2022-12-02T02:14:00.795Z,16.35
2022-12-02T02:16:28.338Z,15.40
2022-12-02T02:18:56.038Z,16.10
2022-12-02T02:21:28.251Z,16.12
2022-12-02T02:23:56.292Z,15.57
2022-12-02T02:26:24.485Z,15.85
2022-12-02T02:28:51.870Z,15.13
2022-12-02T02:31:19.615Z,15.38
2022-12-02T02:33:48.707Z,15.05
2022-12-02T02:36:16.887Z,15.57
2022-12-02T02:38:44.481Z,15.35
2022-12-02T02:41:12.316Z,17.08
2022-12-02T02:43:39.768Z,16.27
2022-12-02T02:46:07.973Z,16.33
2022-12-02T02:48:36.202Z,16.65
2022-12-02T02:51:04.012Z,15.82
2022-12-02T02:53:31.773Z,15.98
2022-12-02T02:55:59.983Z,15.63
2022-12-02T02:58:29.155Z,4.10
2022-12-02T03:01:00.858Z,15.35
2022-12-02T03:03:35.655Z,15.10
2022-12-02T03:06:04.936Z,14.53
2022-12-02T03:08:32.817Z,15.73
2022-12-02T03:11:01.840Z,14.95
2022-12-02T03:13:31.338Z,15.15
2022-12-02T03:15:59.188Z,14.65
2022-12-02T03:18:26.593Z,14.23
2022-12-02T03:20:53.954Z,14.43
2022-12-02T03:23:21.704Z,14.20
2022-12-02T03:25:49.397Z,1.95
2022-12-02T03:28:16.852Z,14.65
2022-12-02T03:30:44.657Z,15.07
2022-12-02T03:33:12.475Z,14.65
2022-12-02T03:35:39.861Z,14.50
2022-12-02T03:38:07.522Z,14.15
2022-12-02T03:40:34.865Z,14.48
2022-12-02T03:43:02.271Z,14.30
2022-12-02T03:45:30.033Z,14.60
2022-12-02T03:47:57.462Z,14.45
2022-12-02T03:50:24.770Z,14.75
2022-12-02T03:52:52.405Z,14.43
2022-12-02T03:55:19.766Z,14.43
2022-12-02T03:57:47.080Z,7.37
2022-12-02T04:00:16.329Z,14.40
2022-12-02T04:02:44.194Z,13.77
2022-12-02T04:05:11.813Z,13.98
2022-12-02T04:07:39.226Z,14.68
2022-12-02T04:10:07.602Z,14.98
2022-12-02T04:13:03.034Z,14.20
2022-12-02T04:15:30.920Z,14.23
2022-12-02T04:17:58.247Z,14.15
2022-12-02T04:20:25.562Z,15.48
2022-12-02T04:22:53.134Z,15.25
2022-12-02T04:25:20.516Z,15.63
2022-12-02T04:27:47.843Z,16.30
2022-12-02T04:30:15.485Z,15.10
2022-12-02T04:32:42.830Z,16.33
2022-12-02T04:35:10.155Z,15.95
2022-12-02T04:37:37.945Z,14.35
2022-12-02T04:40:06.357Z,14.85
2022-12-02T04:42:33.677Z,14.20
2022-12-02T04:45:01.804Z,14.07
2022-12-02T04:47:29.108Z,16.15
2022-12-02T04:49:56.436Z,17.02
2022-12-02T04:52:24.046Z,17.42
2022-12-02T04:54:51.488Z,18.23
2022-12-02T04:57:18.938Z,16.67
2022-12-02T04:59:46.507Z,15.50
2022-12-02T05:02:13.922Z,15.52
2022-12-02T05:04:41.321Z,16.23
2022-12-02T05:07:09.013Z,16.42
2022-12-02T05:09:36.372Z,16.05
2022-12-02T05:12:03.786Z,15.52
2022-12-02T05:14:31.401Z,16.08
2022-12-02T05:16:58.865Z,16.73
2022-12-02T05:19:26.237Z,15.15
2022-12-02T05:21:54.015Z,14.90
2022-12-02T05:24:21.312Z,15.23
2022-12-02T05:26:48.643Z,15.07
2022-12-02T05:29:16.211Z,15.15
2022-12-02T05:31:43.608Z,16.50
2022-12-02T05:34:11.165Z,15.95
2022-12-02T05:36:39.269Z,16.15
2022-12-02T05:39:06.646Z,16.00
2022-12-02T05:41:33.947Z,15.27
2022-12-02T05:44:19.963Z,15.65
2022-12-02T05:46:47.599Z,15.68
2022-12-02T05:49:21.484Z,16.52
2022-12-02T05:51:56.715Z,15.60
2022-12-02T05:54:25.810Z,17.33
2022-12-02T05:56:53.761Z,18.40
2022-12-02T05:59:22.143Z,9.35
2022-12-02T06:01:52.414Z,17.00
2022-12-02T06:04:23.882Z,15.70
2022-12-02T06:06:56.329Z,16.33
2022-12-02T06:09:26.288Z,16.25
2022-12-02T06:11:53.796Z,16.48
2022-12-02T06:14:25.844Z,3.55
2022-12-02T06:16:56.218Z,16.62
2022-12-02T06:19:44.516Z,16.87
2022-12-02T06:22:20.542Z,17.30
2022-12-02T06:24:49.328Z,17.23
2022-12-02T06:27:18.108Z,16.25
2022-12-02T06:29:50.689Z,17.92
2022-12-02T06:32:21.902Z,17.70
2022-12-02T06:34:52.287Z,18.12
2022-12-02T06:37:22.998Z,16.98
2022-12-02T06:40:26.365Z,15.57
2022-12-02T06:42:43.233Z,15.52
2022-12-02T06:45:13.658Z,16.50
2022-12-02T06:47:47.439Z,17.95
2022-12-02T06:50:27.544Z,17.10
2022-12-02T06:53:06.502Z,15.60
2022-12-02T06:55:36.790Z,9.55
2022-12-02T06:58:33.240Z,17.70
2022-12-02T07:01:20.074Z,15.52
2022-12-02T07:03:55.888Z,16.85
2022-12-02T07:06:27.843Z,16.75
2022-12-02T07:09:06.976Z,16.05
2022-12-02T07:11:52.012Z,16.73
2022-12-02T07:14:25.988Z,16.05
2022-12-02T07:16:58.187Z,17.70
2022-12-02T07:19:40.337Z,16.33
2022-12-02T07:22:34.482Z,18.25
2022-12-02T07:25:04.606Z,1.30
2022-12-02T07:27:34.674Z,16.87
2022-12-02T07:30:03.202Z,17.25
2022-12-02T07:32:30.530Z,16.65
2022-12-02T07:34:58.128Z,17.70
2022-12-02T07:37:25.413Z,16.85
2022-12-02T07:39:52.824Z,17.25
2022-12-02T07:42:20.394Z,17.27
2022-12-02T07:44:47.717Z,16.62
2022-12-02T07:47:15.066Z,17.98
2022-12-02T07:49:42.638Z,17.45
2022-12-02T07:52:09.943Z,17.15
2022-12-02T07:54:37.315Z,18.73
2022-12-02T07:57:04.910Z,17.85
2022-12-02T07:59:32.257Z,18.12
2022-12-02T08:01:59.711Z,5.80
2022-12-02T08:04:27.411Z,21.00
2022-12-02T08:06:54.766Z,18.40
2022-12-02T08:09:22.110Z,17.95
2022-12-02T08:11:49.674Z,16.52
2022-12-02T08:14:17.033Z,18.42
2022-12-02T08:16:44.377Z,17.08
2022-12-02T08:19:12.076Z,17.17
2022-12-02T08:21:40.594Z,16.58
2022-12-02T08:24:08.493Z,17.98
2022-12-02T08:26:36.051Z,17.55
2022-12-02T08:29:03.536Z,20.02
2022-12-02T08:31:31.018Z,18.40
2022-12-02T08:34:02.492Z,18.62
2022-12-02T08:36:34.456Z,20.10
2022-12-02T08:39:06.013Z,18.95
2022-12-02T08:41:34.285Z,6.18
2022-12-02T08:44:02.437Z,19.08
2022-12-02T08:46:30.227Z,16.95
2022-12-02T08:48:57.829Z,18.05
2022-12-02T08:51:25.806Z,17.73
2022-12-02T08:53:53.307Z,18.12
2022-12-02T08:56:20.634Z,17.50
2022-12-02T08:58:48.383Z,16.85
2022-12-02T09:01:15.796Z,18.42
2022-12-02T09:03:43.117Z,17.23
2022-12-02T09:06:10.701Z,18.27
2022-12-02T09:08:38.118Z,17.20
2022-12-02T09:11:05.668Z,17.65
2022-12-02T09:13:33.310Z,17.70
2022-12-02T09:16:00.661Z,17.35
2022-12-02T09:18:28.005Z,17.30
2022-12-02T09:20:55.669Z,17.98
2022-12-02T09:23:22.995Z,17.70
2022-12-02T09:25:50.326Z,18.30
2022-12-02T09:28:17.915Z,16.73
2022-12-02T09:30:45.240Z,19.95
2022-12-02T09:33:12.611Z,18.52
2022-12-02T09:35:40.197Z,19.08
2022-12-02T09:38:08.865Z,17.92
2022-12-02T09:40:36.683Z,17.42
2022-12-02T09:43:04.905Z,16.75
2022-12-02T09:45:33.875Z,16.67
2022-12-02T09:48:01.638Z,16.42
2022-12-02T09:50:29.223Z,16.37
2022-12-02T09:53:00.217Z,18.00
2022-12-02T09:55:27.642Z,18.45
2022-12-02T09:57:55.623Z,19.37
2022-12-02T10:00:23.490Z,18.50
2022-12-02T10:02:53.138Z,18.75
2022-12-02T10:05:28.034Z,18.48
2022-12-02T10:07:57.857Z,18.70
2022-12-02T10:10:29.845Z,3.28
2022-12-02T10:12:59.966Z,19.12
2022-12-02T10:15:31.959Z,17.77
2022-12-02T10:18:10.367Z,17.60
2022-12-02T10:20:37.684Z,18.65
2022-12-02T10:23:21.901Z,19.40
2022-12-02T10:25:58.337Z,18.90
2022-12-02T10:28:31.384Z,18.75
2022-12-02T10:31:08.581Z,19.17
2022-12-02T10:33:39.385Z,18.58
2022-12-02T10:36:07.010Z,9.68
2022-12-02T10:38:41.331Z,19.45
2022-12-02T10:41:14.388Z,16.98
2022-12-02T10:43:43.507Z,20.12
2022-12-02T10:46:14.327Z,19.67
2022-12-02T10:48:41.999Z,20.17
2022-12-02T10:51:13.653Z,19.02
2022-12-02T10:53:41.959Z,19.50
2022-12-02T10:56:16.580Z,19.45
2022-12-02T11:01:12.617Z,18.65
2022-12-02T11:03:40.702Z,19.15
2022-12-02T11:06:16.649Z,20.20
2022-12-02T11:08:44.261Z,19.60
2022-12-02T11:11:39.567Z,19.23
2022-12-02T11:14:12.462Z,20.23
2022-12-02T11:16:51.318Z,19.87
2022-12-02T11:19:40.629Z,19.98
2022-12-02T11:23:08.910Z,20.10
2022-12-02T11:25:49.044Z,21.17
2022-12-02T11:28:19.405Z,21.12
2022-12-02T11:30:48.133Z,20.45
2022-12-02T11:33:48.689Z,20.90
2022-12-02T11:36:24.041Z,21.20
2022-12-02T11:38:51.250Z,20.67
2022-12-02T11:41:24.668Z,19.80
2022-12-02T11:44:10.591Z,20.90
2022-12-02T11:46:47.158Z,21.00
2022-12-02T11:49:34.087Z,20.27
2022-12-02T11:52:11.953Z,21.10
2022-12-02T11:54:44.508Z,20.77
2022-12-02T11:57:21.119Z,20.62
2022-12-02T11:59:48.988Z,21.55
2022-12-02T12:02:19.104Z,20.58
2022-12-02T12:04:57.671Z,22.52
2022-12-02T12:07:25.070Z,20.10
2022-12-02T12:09:59.715Z,21.40
2022-12-02T12:12:27.034Z,20.90
2022-12-02T12:15:01.407Z,20.77
2022-12-02T12:17:37.989Z,21.90
2022-12-02T12:20:25.822Z,20.62
2022-12-02T12:22:53.148Z,21.83
2022-12-02T12:25:43.181Z,20.35
2022-12-02T12:28:27.068Z,21.02
2022-12-02T12:30:54.728Z,22.48
2022-12-02T12:33:22.122Z,21.33
2022-12-02T12:35:49.578Z,21.50
2022-12-02T12:38:17.504Z,20.60
2022-12-02T12:40:44.817Z,20.85
2022-12-02T12:43:12.202Z,22.37
2022-12-02T12:45:39.834Z,21.40
2022-12-02T12:48:07.189Z,19.30
2022-12-02T12:50:34.505Z,20.55
2022-12-02T12:53:02.207Z,23.55
2022-12-02T12:55:29.533Z,21.60
2022-12-02T12:57:56.857Z,22.37
2022-12-02T13:00:24.477Z,22.30
2022-12-02T13:02:51.858Z,22.60
2022-12-02T13:05:19.234Z,22.67
2022-12-02T13:07:47.240Z,22.37
2022-12-02T13:10:15.481Z,23.05
2022-12-02T13:12:42.787Z,23.55
2022-12-02T13:15:10.520Z,23.83
2022-12-02T13:17:38.405Z,23.00
2022-12-02T13:20:07.941Z,25.95
2022-12-02T13:22:35.595Z,24.70
2022-12-02T13:25:03.308Z,23.00
2022-12-02T13:27:30.629Z,23.25
2022-12-02T13:29:58.636Z,23.98
2022-12-02T13:32:26.184Z,24.90
2022-12-02T13:34:53.778Z,25.95
2022-12-02T13:37:40.384Z,25.50
2022-12-02T13:40:09.144Z,22.25
2022-12-02T13:42:36.779Z,22.10
2022-12-02T13:45:04.945Z,21.52
2022-12-02T13:47:32.462Z,21.62
2022-12-02T13:50:00.055Z,22.75
2022-12-02T13:52:27.395Z,23.08
2022-12-02T13:54:54.851Z,23.48
2022-12-02T13:57:22.491Z,24.60
2022-12-02T13:59:49.797Z,22.33
2022-12-02T14:02:17.111Z,21.42
2022-12-02T14:04:44.708Z,21.62
2022-12-02T14:07:12.035Z,21.40
2022-12-02T14:09:39.411Z,21.20
2022-12-02T14:12:07.383Z,21.65
2022-12-02T14:14:34.853Z,22.55
2022-12-02T14:17:02.217Z,22.02
2022-12-02T14:19:29.797Z,21.67
2022-12-02T14:21:57.122Z,25.92
2022-12-02T14:24:24.413Z,22.90
2022-12-02T14:26:51.997Z,22.35
2022-12-02T14:29:19.322Z,22.25
2022-12-02T14:31:46.913Z,22.52
2022-12-02T14:34:14.805Z,23.17
2022-12-02T14:36:43.023Z,23.23
2022-12-02T14:39:10.874Z,24.25
2022-12-02T14:41:38.479Z,25.60
2022-12-02T14:44:05.772Z,25.20
2022-12-02T14:46:33.452Z,23.08
2022-12-02T14:49:30.700Z,24.58
2022-12-02T14:51:48.385Z,26.05
2022-12-02T14:54:15.948Z,27.98
2022-12-02T14:56:43.292Z,26.10
2022-12-02T14:59:14.630Z,25.60
2022-12-02T15:01:42.676Z,23.87
2022-12-02T15:04:10.111Z,25.60
2022-12-02T15:06:37.415Z,24.27
2022-12-02T15:09:05.201Z,21.40
2022-12-02T15:11:32.521Z,24.12
2022-12-02T15:14:00.029Z,21.42
2022-12-02T15:16:27.736Z,22.33
2022-12-02T15:18:55.482Z,22.20
2022-12-02T15:21:22.794Z,20.88
2022-12-02T15:23:50.606Z,21.42
2022-12-02T15:26:18.310Z,21.23
2022-12-02T15:28:46.305Z,23.27
2022-12-02T15:31:17.998Z,21.42
2022-12-02T15:33:46.108Z,23.15
2022-12-02T15:36:14.333Z,24.15
2022-12-02T15:38:42.047Z,22.48
2022-12-02T15:41:09.748Z,23.52
2022-12-02T15:43:37.898Z,23.80
2022-12-02T15:46:05.533Z,24.12
2022-12-02T15:48:32.848Z,23.48
2022-12-02T15:51:00.933Z,22.65
2022-12-02T15:53:28.251Z,23.73
2022-12-02T15:55:55.836Z,22.45
2022-12-02T15:58:23.387Z,24.08
2022-12-02T16:00:50.749Z,22.08
2022-12-02T16:03:18.646Z,22.20
2022-12-02T16:05:45.983Z,24.08
2022-12-02T16:08:14.182Z,24.12
2022-12-02T16:10:41.889Z,21.15
2022-12-02T16:13:09.602Z,22.75
2022-12-02T16:15:37.087Z,27.62
2022-12-02T16:18:05.129Z,21.77
2022-12-02T16:20:32.686Z,24.20
2022-12-02T16:23:00.396Z,23.85
2022-12-02T16:25:30.585Z,23.08
2022-12-02T16:27:57.999Z,22.60
2022-12-02T16:30:26.004Z,21.87
2022-12-02T16:32:53.651Z,21.75
2022-12-02T16:35:20.987Z,23.90
2022-12-02T16:37:48.637Z,23.75
2022-12-02T16:40:16.330Z,22.87
2022-12-02T16:42:44.171Z,23.42
2022-12-02T16:45:12.408Z,28.12
2022-12-02T16:47:40.075Z,26.90
2022-12-02T16:50:16.251Z,24.58
2022-12-02T16:52:47.915Z,23.15
2022-12-02T16:55:15.639Z,22.48
2022-12-02T16:57:43.134Z,22.60
2022-12-02T17:00:11.277Z,23.12
2022-12-02T17:02:39.063Z,21.50
2022-12-02T17:05:07.130Z,23.38
2022-12-02T17:07:34.812Z,22.75
2022-12-02T17:10:02.692Z,21.33
2022-12-02T17:12:30.158Z,20.83
2022-12-02T17:14:58.324Z,22.52
2022-12-02T17:17:44.779Z,21.27
2022-12-02T17:20:14.005Z,23.15
2022-12-02T17:22:41.808Z,20.45
2022-12-02T17:25:12.532Z,22.90
2022-12-02T17:27:41.468Z,22.08
2022-12-02T17:30:09.602Z,23.15
2022-12-02T17:32:38.014Z,21.85
2022-12-02T17:35:06.272Z,23.75
2022-12-02T17:37:33.664Z,23.48
2022-12-02T17:40:01.487Z,23.38
2022-12-02T17:42:30.500Z,22.87
2022-12-02T17:44:58.205Z,21.70
2022-12-02T17:47:25.638Z,22.20
2022-12-02T17:49:53.891Z,20.80
2022-12-02T17:52:21.745Z,21.00
2022-12-02T17:54:49.769Z,6.87
2022-12-02T17:57:17.646Z,19.92
2022-12-02T17:59:45.009Z,20.12
2022-12-02T18:02:13.237Z,20.55
2022-12-02T18:04:44.443Z,19.55
2022-12-02T18:07:12.514Z,19.90
2022-12-02T18:09:40.261Z,23.17
2022-12-02T18:12:08.657Z,22.55
2022-12-02T18:14:36.355Z,20.80
2022-12-02T18:17:06.942Z,21.98
2022-12-02T18:19:35.396Z,22.00
2022-12-02T18:22:03.020Z,20.52
2022-12-02T18:24:31.379Z,15.95
2022-12-02T18:26:59.324Z,21.33
2022-12-02T18:29:28.076Z,21.35
2022-12-02T18:31:55.895Z,18.42
2022-12-02T18:34:24.012Z,21.27
2022-12-02T18:36:51.714Z,21.83
2022-12-02T18:39:19.448Z,21.05
2022-12-02T18:41:48.248Z,21.15
2022-12-02T18:44:16.096Z,20.55
2022-12-02T18:46:44.359Z,20.35
2022-12-02T18:49:12.727Z,21.70
2022-12-02T18:51:40.490Z,21.67
2022-12-02T18:54:08.960Z,21.90
2022-12-02T18:56:36.662Z,21.92
2022-12-02T18:59:05.041Z,21.27
2022-12-02T19:01:41.656Z,24.25
2022-12-02T19:04:09.859Z,23.55
2022-12-02T19:06:37.873Z,23.25
2022-12-02T19:09:06.742Z,22.50
2022-12-02T19:11:34.696Z,23.52
2022-12-02T19:14:02.114Z,21.25
2022-12-02T19:16:30.738Z,23.17
2022-12-02T19:19:00.580Z,20.60
2022-12-02T19:21:29.185Z,21.70
2022-12-02T19:23:57.724Z,24.08
2022-12-02T19:26:25.773Z,22.13
2022-12-02T19:28:53.705Z,22.50
2022-12-02T19:31:22.204Z,22.50
2022-12-02T19:33:50.280Z,21.42
2022-12-02T19:36:18.111Z,20.80
2022-12-02T19:38:46.269Z,22.08
2022-12-02T19:41:14.203Z,21.83
2022-12-02T19:43:44.612Z,21.62
2022-12-02T19:46:12.682Z,20.33
2022-12-02T19:48:40.477Z,22.62
2022-12-02T19:51:08.387Z,21.60
2022-12-02T19:53:37.904Z,5.12
2022-12-02T19:56:06.025Z,21.75
2022-12-02T19:58:33.450Z,21.55
2022-12-02T20:01:01.446Z,21.02
2022-12-02T20:03:30.316Z,21.83
2022-12-02T20:06:03.772Z,21.37
2022-12-02T20:08:32.047Z,21.17
2022-12-02T20:10:59.846Z,20.85
2022-12-02T20:13:27.701Z,21.70
2022-12-02T20:15:58.456Z,20.55
2022-12-02T20:18:27.035Z,9.52
2022-12-02T20:20:55.443Z,22.62
2022-12-02T20:23:23.804Z,12.13
2022-12-02T20:25:51.671Z,22.27
2022-12-02T20:28:19.890Z,22.00
2022-12-02T20:30:47.323Z,22.62
2022-12-02T20:33:15.076Z,20.17
2022-12-02T20:35:43.160Z,21.80
2022-12-02T20:38:11.479Z,22.83
2022-12-02T20:40:39.613Z,22.08
2022-12-02T20:43:07.750Z,22.40
2022-12-02T20:45:35.823Z,21.48
2022-12-02T20:48:04.273Z,23.05
2022-12-02T20:50:31.901Z,21.95
2022-12-02T20:52:59.592Z,22.50
2022-12-02T20:55:27.382Z,21.92
2022-12-02T20:57:55.573Z,21.25
2022-12-02T21:00:24.291Z,22.60
2022-12-02T21:02:52.194Z,21.67
2022-12-02T21:05:22.306Z,22.25
2022-12-02T21:07:50.341Z,23.70
2022-12-02T21:10:18.954Z,22.62
2022-12-02T21:12:47.197Z,23.38
2022-12-02T21:15:15.484Z,22.83
2022-12-02T21:17:44.271Z,23.45
2022-12-02T21:20:16.575Z,22.95
2022-12-02T21:22:44.902Z,21.58
2022-12-02T21:25:14.544Z,23.02
2022-12-02T21:27:42.612Z,22.75
2022-12-02T21:30:11.212Z,23.80
2022-12-02T21:32:40.799Z,24.02
2022-12-02T21:35:10.110Z,22.65
2022-12-02T21:37:38.145Z,22.45
2022-12-02T21:40:06.439Z,21.58
2022-12-02T21:42:34.077Z,23.12
2022-12-02T21:45:01.759Z,24.05
2022-12-02T21:47:31.146Z,24.05
2022-12-02T21:49:58.459Z,23.25
2022-12-02T21:52:25.786Z,23.80
2022-12-02T21:54:53.561Z,25.27
2022-12-02T21:57:21.073Z,22.67
2022-12-02T21:59:48.404Z,22.52
2022-12-02T22:02:16.643Z,24.37
2022-12-02T22:04:45.446Z,23.00
2022-12-02T22:07:31.439Z,23.67
2022-12-02T22:09:59.114Z,22.27
2022-12-02T22:12:26.447Z,22.62
2022-12-02T22:14:55.142Z,22.80
2022-12-02T22:17:22.960Z,23.70
2022-12-02T22:19:50.308Z,24.25
2022-12-02T22:22:17.624Z,25.33
2022-12-02T22:24:45.201Z,22.15
2022-12-02T22:27:12.545Z,23.10
2022-12-02T22:29:39.821Z,23.48
2022-12-02T22:32:07.568Z,23.38
2022-12-02T22:34:34.919Z,23.45
2022-12-02T22:37:02.222Z,24.08
2022-12-02T22:39:29.795Z,23.23
2022-12-02T22:41:57.098Z,24.65
2022-12-02T22:44:24.401Z,22.55
2022-12-02T22:46:52.118Z,24.30
2022-12-02T22:49:19.451Z,23.52
2022-12-02T22:51:46.930Z,23.65
2022-12-02T22:54:14.506Z,24.75
2022-12-02T22:56:41.815Z,25.30
2022-12-02T22:59:09.146Z,24.10
2022-12-02T23:01:36.823Z,24.98
2022-12-02T23:04:04.424Z,23.83
2022-12-02T23:06:31.733Z,25.73
2022-12-02T23:08:59.376Z,23.55
2022-12-02T23:11:26.683Z,24.52
2022-12-02T23:13:53.982Z,26.58
2022-12-02T23:16:21.651Z,6.07
2022-12-02T23:18:49.016Z,25.08
2022-12-02T23:21:16.313Z,25.55
2022-12-02T23:23:43.886Z,27.20
2022-12-02T23:26:11.219Z,24.75
2022-12-02T23:28:38.526Z,24.67
2022-12-02T23:31:06.195Z,25.17
2022-12-02T23:33:33.574Z,25.73
2022-12-02T23:36:00.889Z,25.42
2022-12-02T23:38:28.483Z,25.62
2022-12-02T23:40:55.804Z,24.75
2022-12-02T23:43:23.093Z,26.05
2022-12-02T23:45:50.759Z,25.08
2022-12-02T23:48:18.127Z,25.83
2022-12-02T23:50:45.461Z,24.05
2022-12-02T23:53:13.522Z,3.28
2022-12-02T23:55:40.828Z,23.62
2022-12-02T23:58:08.137Z,22.92
